Time;durP1;ratioP1;P1;durP2;ratioP2;P2;SDS_P1;SDS_P2;PMS_P1;PMS_P2;Temp;Humidity;BMP_temperature;BMP_pressure;BME280_temperature;BME280_humidity;BME280_pressure;Samples;Min_cycle;Max_cycle;Signal;HPM_P1;HPM_P2
2024/01/23 01:21:09;;;;;;;2.23;1.40;;;7.30;99.90;;;;;;6247105;23;20398;-77
2024/01/23 01:24:10;;;;;;;4.37;1.60;;;7.20;99.90;;;;;;6230656;23;20458;-77
2024/01/23 01:27:24;;;;;;;4.60;1.50;;;7.20;99.90;;;;;;6213487;23;20413;-77
2024/01/23 01:30:33;;;;;;;5.47;3.13;;;7.10;99.90;;;;;;6185070;23;20494;-77
2024/01/23 01:33:11;;;;;;;3.53;1.60;;;7.40;99.90;;;;;;6074502;23;20441;-79
2024/01/23 01:36:09;;;;;;;4.93;1.50;;;7.10;99.90;;;;;;6225109;23;20412;-80
2024/01/23 01:39:14;;;;;;;1.53;0.90;;;7.00;99.90;;;;;;6226359;23;20414;-78
2024/01/23 01:48:55;;;;;;;2.73;2.03;;;7.00;99.90;;;;;;6199019;23;20585;-78
2024/01/23 01:55:28;;;;;;;;;;;;;;;;;;;;;
2024/01/23 02:08:47;;;;;;;6.33;1.70;;;6.90;99.90;;;;;;6156914;23;20931;-78
2024/01/23 02:27:27;;;;;;;;;;;;;;;;;;;;;
2024/01/23 02:46:55;;;;;;;;;;;;;;;;;;;;;
2024/01/23 04:01:17;;;;;;;;;;;;;;;;;;;;;
2024/01/23 04:48:38;;;;;;;;;;;;;;;;;;;;;
2024/01/23 08:51:31;;;;;;;;;;;;;;;;;;;;;
2024/01/23 12:09:13;;;;;;;7.43;1.90;;;9.10;99.90;;;;;;5957408;24;20432;-79
2024/01/23 13:35:15;;;;;;;6.70;2.00;;;9.30;99.90;;;;;;6249973;22;20447;-80
2024/01/23 13:37:54;;;;;;;8.33;2.43;;;9.20;99.90;;;;;;6255558;23;20444;-78
2024/01/23 13:40:27;;;;;;;6.47;2.53;;;9.10;99.90;;;;;;6253779;23;20971;-80
2024/01/23 13:45:46;;;;;;;5.10;2.70;;;9.20;99.90;;;;;;6184109;23;20963;-79
2024/01/23 13:48:39;;;;;;;6.07;2.30;;;9.20;99.90;;;;;;6222032;23;20410;-77
2024/01/23 13:51:48;;;;;;;12.87;2.90;;;9.20;99.90;;;;;;6224236;23;20468;-79
2024/01/23 13:57:57;;;;;;;9.93;3.17;;;8.80;99.90;;;;;;6052417;23;20481;-79
2024/01/23 14:00:35;;;;;;;3.73;2.13;;;9.10;99.90;;;;;;6223310;23;20500;-80
2024/01/23 14:03:33;;;;;;;5.97;2.47;;;9.10;99.90;;;;;;6224291;23;20429;-80
2024/01/23 14:06:43;;;;;;;7.33;2.30;;;9.00;99.90;;;;;;6224727;23;20392;-80
2024/01/23 14:09:11;;;;;;;7.43;2.27;;;9.00;99.90;;;;;;6222883;23;20386;-80
2024/01/23 14:11:55;;;;;;;4.70;2.10;;;9.00;99.90;;;;;;6225440;23;20410;-80
2024/01/23 14:14:37;;;;;;;6.63;2.40;;;9.10;99.90;;;;;;6225325;23;20471;-79
2024/01/23 14:17:11;;;;;;;6.70;2.30;;;9.00;99.90;;;;;;6224304;23;20417;-82
2024/01/23 14:19:41;;;;;;;6.60;2.33;;;9.00;99.90;;;;;;6225177;23;20414;-79
2024/01/23 14:22:13;;;;;;;7.53;2.23;;;9.00;99.90;;;;;;6225732;23;20474;-78
2024/01/23 14:29:10;;;;;;;7.63;2.47;;;9.00;99.90;;;;;;5855956;24;20415;-80
2024/01/23 14:31:49;;;;;;;7.37;2.27;;;8.70;99.90;;;;;;6012250;23;20509;-79
2024/01/23 14:35:01;;;;;;;4.73;2.30;;;9.00;99.90;;;;;;6082897;23;20512;-79
2024/01/23 14:37:42;;;;;;;4.50;2.27;;;8.70;99.90;;;;;;6095988;23;20417;-80
2024/01/23 14:40:22;;;;;;;8.87;3.00;;;9.10;99.90;;;;;;6142965;23;20914;-78
2024/01/23 14:43:02;;;;;;;5.93;2.63;;;9.00;99.90;;;;;;6188498;23;20894;-77
2024/01/23 14:45:35;;;;;;;6.63;2.50;;;9.00;99.90;;;;;;6189150;23;20395;-79
2024/01/23 14:48:12;;;;;;;9.10;2.90;;;9.10;99.90;;;;;;6189062;23;20537;-78
2024/01/23 14:51:09;;;;;;;5.00;2.40;;;9.00;99.90;;;;;;6187869;23;20433;-80
2024/01/23 14:53:54;;;;;;;4.87;2.43;;;9.00;99.90;;;;;;6187097;23;20454;-78
2024/01/23 14:56:33;;;;;;;7.37;2.63;;;9.10;99.90;;;;;;6188545;23;20429;-79
2024/01/23 15:02:13;;;;;;;4.93;2.60;;;9.00;99.90;;;;;;6144102;23;20431;-78
2024/01/23 15:04:58;;;;;;;8.43;2.83;;;9.00;99.90;;;;;;6191290;23;20413;-79
2024/01/23 15:07:31;;;;;;;5.57;2.57;;;9.20;99.90;;;;;;6188743;23;20397;-79
2024/01/23 15:10:06;;;;;;;8.50;3.00;;;8.80;99.90;;;;;;6190142;23;20413;-81
2024/01/23 15:12:44;;;;;;;4.13;1.97;;;9.00;99.90;;;;;;6189875;23;20451;-82
2024/01/23 15:15:31;;;;;;;5.80;2.37;;;9.00;99.90;;;;;;6190069;23;20909;-79
2024/01/23 15:18:42;;;;;;;5.63;2.40;;;9.00;99.90;;;;;;6190144;23;20497;-81
2024/01/23 15:21:23;;;;;;;7.20;2.50;;;9.00;99.90;;;;;;6180193;23;20450;-81
2024/01/23 15:24:09;;;;;;;5.43;1.97;;;9.00;99.90;;;;;;6190745;23;20457;-78
2024/01/23 15:26:44;;;;;;;5.00;2.20;;;9.00;99.90;;;;;;6191422;23;20403;-80
2024/01/23 15:29:22;;;;;;;6.20;2.03;;;9.00;99.90;;;;;;6190920;23;20407;-80
2024/01/23 15:31:58;;;;;;;6.40;2.47;;;8.90;99.90;;;;;;6193528;23;20427;-80
2024/01/23 15:34:32;;;;;;;8.70;2.57;;;8.90;99.90;;;;;;6193306;23;20492;-81
2024/01/23 15:37:12;;;;;;;6.97;2.30;;;8.90;99.90;;;;;;6212070;23;20421;-80
2024/01/23 15:39:51;;;;;;;10.13;2.67;;;8.80;99.90;;;;;;6224790;23;20418;-79
2024/01/23 15:42:26;;;;;;;4.73;2.43;;;8.80;99.90;;;;;;6224826;23;20455;-82
2024/01/23 15:44:59;;;;;;;3.57;2.30;;;8.90;99.90;;;;;;6224856;23;20420;-81
2024/01/23 15:47:31;;;;;;;4.77;2.20;;;8.60;99.90;;;;;;6224181;23;20415;-79
2024/01/23 15:50:05;;;;;;;6.60;2.90;;;8.80;99.90;;;;;;6224177;23;20413;-81
2024/01/23 15:52:42;;;;;;;2.30;1.70;;;8.80;99.90;;;;;;6223363;23;20445;-82
2024/01/23 15:55:18;;;;;;;7.70;3.57;;;8.80;99.90;;;;;;6220922;23;20410;-77
2024/01/23 15:58:06;;;;;;;2.97;2.03;;;8.80;99.90;;;;;;6221495;23;20374;-79
2024/01/23 16:00:49;;;;;;;4.30;2.37;;;8.80;99.90;;;;;;6222105;23;20509;-79
2024/01/23 16:03:26;;;;;;;7.10;2.87;;;8.80;99.90;;;;;;6223068;23;20465;-79
2024/01/23 16:06:02;;;;;;;7.17;2.30;;;8.70;99.90;;;;;;6223580;23;20434;-81
2024/01/23 16:08:45;;;;;;;4.00;2.17;;;8.80;99.90;;;;;;6221096;23;20414;-81
2024/01/23 16:11:15;;;;;;;12.67;2.90;;;8.70;99.90;;;;;;6223082;23;20402;-82
2024/01/23 16:17:03;;;;;;;7.37;2.20;;;8.70;99.90;;;;;;6217984;23;20493;-81
2024/01/23 16:19:40;;;;;;;5.47;2.07;;;8.70;99.90;;;;;;6222220;23;20414;-81
2024/01/23 16:22:22;;;;;;;4.30;2.10;;;8.70;99.90;;;;;;6220925;23;20468;-79
2024/01/23 16:25:06;;;;;;;7.97;2.60;;;8.60;99.90;;;;;;6220569;23;20399;-79
2024/01/23 16:27:42;;;;;;;6.87;2.40;;;8.90;99.90;;;;;;6219346;23;20417;-83
2024/01/23 16:30:13;;;;;;;4.47;2.03;;;8.60;99.90;;;;;;6221548;23;20903;-80
2024/01/23 16:32:41;;;;;;;5.67;2.60;;;8.60;99.90;;;;;;6223381;23;20448;-80
2024/01/23 16:35:09;;;;;;;5.97;2.83;;;8.60;99.90;;;;;;6222497;23;20706;-82
2024/01/23 16:37:37;;;;;;;6.50;2.80;;;8.60;99.90;;;;;;6223105;23;20433;-82
2024/01/23 16:40:12;;;;;;;13.20;3.03;;;8.60;99.90;;;;;;6222988;23;20440;-80
2024/01/23 16:42:49;;;;;;;7.93;2.90;;;8.50;99.90;;;;;;6218745;23;20435;-81
2024/01/23 16:45:30;;;;;;;12.07;3.00;;;8.50;99.90;;;;;;6216918;23;20475;-81
2024/01/23 16:48:13;;;;;;;7.33;2.70;;;8.50;99.90;;;;;;6218161;23;20497;-80
2024/01/23 16:50:50;;;;;;;8.80;2.33;;;8.50;99.90;;;;;;6219502;23;20437;-80
2024/01/23 16:53:56;;;;;;;9.37;4.73;;;8.50;99.90;;;;;;6218723;23;20465;-80
2024/01/23 16:57:01;;;;;;;5.10;2.33;;;8.50;99.90;;;;;;6214086;23;20412;-80
2024/01/23 17:00:08;;;;;;;6.70;3.17;;;8.50;99.90;;;;;;6218133;23;20723;-80
2024/01/23 17:02:58;;;;;;;5.93;2.87;;;8.50;99.90;;;;;;6217803;23;20454;-82
2024/01/23 17:09:08;;;;;;;7.33;2.30;;;8.50;99.90;;;;;;6154827;23;20488;-79
2024/01/23 17:45:27;;;;;;;9.37;3.07;;;8.40;99.90;;;;;;5931909;23;20494;-78
2024/01/23 17:49:08;;;;;;;9.30;3.20;;;8.40;99.90;;;;;;5907787;23;20448;-79
2024/01/23 18:18:34;;;;;;;13.40;4.07;;;8.40;99.90;;;;;;6120129;23;20504;-81
2024/01/23 18:24:54;;;;;;;4.70;2.80;;;8.10;99.90;;;;;;6122018;23;21286;-81
2024/01/23 18:59:20;;;;;;;;;;;;;;;;;;;;;
2024/01/23 19:02:07;;;;;;;9.73;3.50;;;7.90;99.90;;;;;;6020119;23;20418;-77
2024/01/23 19:05:35;;;;;;;;;;;;;;;;;;;;;
2024/01/23 19:11:09;;;;;;;10.13;3.70;;;7.70;99.90;;;;;;6225050;23;20404;-79
2024/01/23 19:14:09;;;;;;;9.03;3.83;;;7.70;99.90;;;;;;6223098;23;20480;-79
2024/01/23 19:16:43;;;;;;;6.40;3.37;;;7.70;99.90;;;;;;6222491;23;20699;-81
2024/01/23 19:23:04;;;;;;;8.40;4.07;;;7.60;99.90;;;;;;6221816;23;20445;-79
2024/01/23 19:35:40;;;;;;;10.43;3.40;;;7.50;99.90;;;;;;6092160;23;20448;-78
2024/01/23 19:38:32;;;;;;;9.50;3.70;;;7.30;99.90;;;;;;6103258;23;20886;-80
2024/01/23 19:41:41;;;;;;;12.67;4.87;;;7.50;99.90;;;;;;6226577;23;20441;-80
2024/01/23 20:03:46;;;;;;;8.17;3.53;;;7.50;99.90;;;;;;6104433;23;20823;-80
2024/01/23 20:06:54;;;;;;;10.63;3.53;;;7.40;99.90;;;;;;6224805;23;20391;-79
2024/01/23 20:16:34;;;;;;;8.60;4.13;;;7.50;99.90;;;;;;6204397;23;20402;-80
2024/01/23 20:19:28;;;;;;;5.30;3.23;;;7.50;99.90;;;;;;6221539;23;20744;-79
2024/01/23 20:22:07;;;;;;;5.03;3.43;;;7.70;99.90;;;;;;6180478;23;20426;-80
2024/01/23 20:24:36;;;;;;;11.67;3.50;;;7.40;99.90;;;;;;6225632;23;20444;-79
2024/01/23 20:27:08;;;;;;;11.57;3.83;;;7.40;99.90;;;;;;6224010;23;20442;-80
2024/01/23 20:29:39;;;;;;;5.47;3.50;;;7.40;99.90;;;;;;6224448;23;20419;-79
2024/01/23 20:32:16;;;;;;;10.93;4.00;;;7.60;99.90;;;;;;6224148;23;20376;-79
2024/01/23 20:34:47;;;;;;;11.57;3.53;;;7.40;99.90;;;;;;6223238;23;20535;-79
2024/01/23 20:37:17;;;;;;;13.87;3.83;;;7.40;99.90;;;;;;6223564;23;20414;-80
2024/01/23 20:39:50;;;;;;;8.43;2.93;;;7.40;99.90;;;;;;6219586;23;20417;-78
2024/01/23 20:42:31;;;;;;;4.83;2.40;;;7.30;99.90;;;;;;6192383;23;20501;-78
2024/01/23 20:45:05;;;;;;;7.47;3.40;;;7.40;99.90;;;;;;6223906;23;20409;-80
2024/01/23 20:47:49;;;;;;;5.77;2.53;;;7.30;99.90;;;;;;6225332;23;20390;-78
2024/01/23 20:50:27;;;;;;;6.10;2.83;;;7.10;99.90;;;;;;6226738;23;20447;-80
2024/01/23 20:53:02;;;;;;;5.00;2.60;;;7.40;99.90;;;;;;6225658;23;20441;-81
2024/01/23 20:55:39;;;;;;;3.33;2.40;;;7.60;99.90;;;;;;6224002;23;20445;-79
2024/01/23 20:58:14;;;;;;;4.47;2.47;;;7.40;99.90;;;;;;6224467;23;20911;-80
2024/01/23 21:01:04;;;;;;;5.13;2.20;;;7.40;99.90;;;;;;6223162;23;20410;-79
2024/01/23 21:03:36;;;;;;;7.63;2.70;;;7.40;99.90;;;;;;6217317;23;20785;-78
2024/01/23 21:06:14;;;;;;;5.13;2.60;;;7.40;99.90;;;;;;6186778;23;20406;-79
2024/01/23 21:08:58;;;;;;;5.40;2.50;;;7.40;99.90;;;;;;6188366;23;20372;-79
2024/01/23 21:11:33;;;;;;;6.10;2.33;;;7.40;99.90;;;;;;6191089;23;20749;-80
2024/01/23 21:14:09;;;;;;;4.10;2.50;;;7.40;99.90;;;;;;6188040;23;20475;-79
2024/01/23 21:16:47;;;;;;;5.43;2.57;;;7.40;99.90;;;;;;6193740;23;20442;-78
2024/01/23 21:19:18;;;;;;;6.50;2.90;;;7.40;99.90;;;;;;6200221;23;20388;-77
2024/01/23 21:21:57;;;;;;;6.83;2.53;;;7.40;99.90;;;;;;6203537;23;20409;-80
2024/01/23 21:24:38;;;;;;;4.87;2.03;;;7.20;99.90;;;;;;6204090;23;20422;-77
2024/01/23 21:27:13;;;;;;;4.73;1.80;;;7.70;99.90;;;;;;6201261;23;20389;-79
2024/01/23 21:29:41;;;;;;;4.87;2.43;;;7.20;99.90;;;;;;6200118;23;20411;-79
2024/01/23 21:32:09;;;;;;;2.90;1.87;;;7.50;99.90;;;;;;6198657;23;20425;-78
2024/01/23 21:34:40;;;;;;;3.03;1.80;;;7.50;99.90;;;;;;6199573;23;20471;-77
2024/01/23 21:37:11;;;;;;;4.43;2.40;;;7.60;99.90;;;;;;6197329;23;20417;-80
2024/01/23 21:39:59;;;;;;;9.97;6.10;;;7.60;99.90;;;;;;6197339;23;20753;-79
2024/01/23 21:42:51;;;;;;;3.43;2.70;;;7.60;99.90;;;;;;6188858;23;20997;-79
2024/01/23 21:45:28;;;;;;;7.33;2.60;;;7.70;99.90;;;;;;6189243;23;20451;-79
2024/01/23 21:48:18;;;;;;;4.73;2.03;;;7.70;99.90;;;;;;6189026;23;20377;-78
2024/01/23 21:51:18;;;;;;;3.07;2.10;;;7.70;99.90;;;;;;6187119;23;20413;-77
2024/01/23 21:54:29;;;;;;;4.00;1.90;;;7.70;99.90;;;;;;6164729;23;20528;-78
2024/01/23 21:57:22;;;;;;;4.43;2.00;;;7.70;99.90;;;;;;6190442;23;20887;-78
2024/01/23 22:03:08;;;;;;;2.13;1.70;;;7.80;99.90;;;;;;6159744;23;20455;-78
2024/01/23 22:05:53;;;;;;;3.43;1.63;;;7.80;99.90;;;;;;6161346;23;20384;-81
2024/01/23 22:08:25;;;;;;;4.80;1.70;;;7.90;99.90;;;;;;6160511;23;20407;-78
2024/01/23 22:11:04;;;;;;;2.60;1.60;;;7.90;99.90;;;;;;6161107;23;20435;-79
2024/01/23 22:14:05;;;;;;;4.53;1.80;;;7.90;99.90;;;;;;6162391;23;20423;-79
2024/01/23 22:17:02;;;;;;;4.77;1.43;;;7.90;99.90;;;;;;6131181;23;20398;-77
2024/01/23 22:19:47;;;;;;;1.60;1.50;;;7.90;99.90;;;;;;6131454;23;20407;-78
2024/01/23 22:29:00;;;;;;;6.53;2.70;;;8.00;99.90;;;;;;6131818;23;20412;-78
2024/01/23 22:31:39;;;;;;;3.40;1.60;;;8.00;99.90;;;;;;6131409;23;20409;-77
2024/01/23 22:34:18;;;;;;;7.10;2.10;;;8.00;99.90;;;;;;6130502;23;20532;-79
2024/01/23 22:37:07;;;;;;;4.20;1.87;;;8.00;99.90;;;;;;6129687;23;20466;-77
2024/01/23 22:39:49;;;;;;;3.93;1.80;;;8.10;99.90;;;;;;6130972;23;20442;-77
2024/01/23 22:42:43;;;;;;;4.50;1.57;;;8.10;99.90;;;;;;6130287;23;20464;-76
2024/01/23 22:45:25;;;;;;;2.97;1.73;;;8.10;99.90;;;;;;6130640;23;20806;-78
2024/01/23 22:48:09;;;;;;;4.63;1.67;;;8.20;99.90;;;;;;6130383;23;20492;-78
2024/01/23 22:50:44;;;;;;;3.37;1.90;;;8.30;99.90;;;;;;6130878;23;20424;-78
2024/01/23 22:53:20;;;;;;;6.27;2.20;;;8.30;99.90;;;;;;6130556;23;20474;-80
2024/01/23 22:55:51;;;;;;;9.33;2.33;;;8.40;99.90;;;;;;6132619;23;20464;-78
2024/01/23 22:58:31;;;;;;;4.07;1.80;;;8.40;99.90;;;;;;6131725;23;20420;-77
2024/01/23 23:01:00;;;;;;;1.53;1.40;;;8.40;99.90;;;;;;6134515;23;20386;-77
2024/01/23 23:03:34;;;;;;;4.10;1.63;;;8.60;99.90;;;;;;6133683;23;20428;-81
2024/01/23 23:06:02;;;;;;;4.63;2.30;;;8.40;99.90;;;;;;6134089;23;20403;-77
2024/01/23 23:08:32;;;;;;;3.80;2.23;;;8.60;99.90;;;;;;6133826;23;20417;-78
2024/01/23 23:11:04;;;;;;;5.30;1.57;;;8.70;99.90;;;;;;6134046;23;20420;-78
2024/01/23 23:13:34;;;;;;;2.80;1.50;;;8.70;99.90;;;;;;6134262;23;20437;-78
2024/01/23 23:16:02;;;;;;;3.17;1.70;;;8.50;99.90;;;;;;6163577;23;20515;-78
2024/01/23 23:18:41;;;;;;;2.43;1.77;;;8.90;99.90;;;;;;6163104;23;20478;-77
2024/01/23 23:21:13;;;;;;;2.00;1.50;;;8.70;99.90;;;;;;6163723;23;20734;-78
2024/01/23 23:23:44;;;;;;;3.10;1.90;;;8.70;99.90;;;;;;6164308;23;20459;-77
2024/01/23 23:26:30;;;;;;;2.97;1.70;;;8.80;99.90;;;;;;6164554;23;20432;-78
2024/01/23 23:29:05;;;;;;;6.60;1.83;;;8.80;99.90;;;;;;6163298;23;20416;-77
2024/01/23 23:31:48;;;;;;;2.73;1.60;;;8.80;99.90;;;;;;6162445;23;20757;-79
2024/01/23 23:34:25;;;;;;;3.63;1.50;;;8.80;99.90;;;;;;6162413;23;20412;-78
2024/01/23 23:37:00;;;;;;;2.53;1.60;;;9.00;99.90;;;;;;6162417;23;20515;-77
2024/01/23 23:39:34;;;;;;;2.73;2.03;;;8.40;99.90;;;;;;6162481;23;20502;-77
2024/01/23 23:42:16;;;;;;;4.23;2.07;;;8.70;99.90;;;;;;6162353;23;21010;-78
2024/01/23 23:45:25;;;;;;;6.40;1.70;;;8.40;99.90;;;;;;6165309;23;20439;-78
2024/01/23 23:51:23;;;;;;;;;;;;;;;;;;;;;
2024/01/23 23:54:05;;;;;;;3.77;1.53;;;8.80;99.90;;;;;;6161814;23;20416;-77
2024/01/23 23:57:05;;;;;;;4.40;2.00;;;9.20;99.90;;;;;;6162250;23;20840;-76
